Archival Weather

Al Ahsa

Al Ahsa, Saudi Arabia (OEAH)

Report from: Friday, May 26, 2023 7:00 PM +03
Current time: Monday, July 22, 2024 1:26 PM +03

Current weather – Weather history – Daily summaries
Weather forecast

Temperature37.0°C (98.6°F)
Heat index35.6°C (96.0°F)
Dew point11.0°C (51.8°F)
Winds 10 kts (5.1 m/s, 11.5 mph) Northeast (40°)
Clouds Sky clear
Altimeter29.74 in.Hg (1007 mB)
Relative humidity21 %
Density altitude2,882 ft. (878 m)
Remarks Ceiling and visibility OK
No significant changes expected in the next two hours
Flight conditions Visual Meteorological Conditions
Raw dataOEAH 261600Z 04010KT CAVOK 37/11 Q1007 NOSIG
An error has occurred. This application may no longer respond until reloaded. Reload 🗙